createdAt,value
2023-05-05T00:02:21.290Z,99526.38
2023-05-05T00:07:24.410Z,99523.06
2023-05-05T00:12:27.522Z,99526.31
2023-05-05T00:17:30.650Z,99526.64
2023-05-05T00:22:33.705Z,99522.05
2023-05-05T00:27:38.376Z,99514.77
2023-05-05T00:32:43.272Z,99509.70
2023-05-05T00:37:46.591Z,99502.30
2023-05-05T00:42:52.534Z,99495.70
2023-05-05T00:47:57.790Z,99492.44
2023-05-05T00:53:02.885Z,99498.68
2023-05-05T00:58:06.350Z,99499.02
2023-05-05T01:03:09.540Z,99506.23
2023-05-05T01:08:29.448Z,99509.48
2023-05-05T01:13:45.357Z,99503.89
2023-05-05T01:19:05.967Z,99493.25
2023-05-05T01:24:31.348Z,99493.17
2023-05-05T01:29:52.742Z,99486.98
2023-05-05T01:35:15.488Z,99485.59
2023-05-05T01:40:25.339Z,99486.77
2023-05-05T01:45:32.437Z,99480.02
2023-05-05T01:50:36.997Z,99480.90
2023-05-05T01:55:41.566Z,99479.35
2023-05-05T02:00:45.051Z,99474.77
2023-05-05T02:05:58.549Z,99474.75
2023-05-05T02:11:02.739Z,99475.59
2023-05-05T02:16:07.187Z,99476.77
2023-05-05T02:21:10.372Z,99481.23
2023-05-05T02:26:16.877Z,99482.80
2023-05-05T02:31:22.973Z,99483.06
2023-05-05T02:36:29.667Z,99485.52
2023-05-05T02:41:39.065Z,99484.35
2023-05-05T02:46:47.559Z,99481.55
2023-05-05T02:51:51.467Z,99481.38
2023-05-05T02:56:59.595Z,99483.95
2023-05-05T03:02:11.503Z,99499.29
2023-05-05T03:07:24.381Z,99492.05
2023-05-05T03:12:36.366Z,99491.34
2023-05-05T03:17:55.382Z,99499.07
2023-05-05T03:23:01.591Z,99500.73
2023-05-05T03:28:04.853Z,99503.96
2023-05-05T03:33:10.511Z,99500.15
2023-05-05T03:38:14.798Z,99500.84
2023-05-05T03:43:19.733Z,99494.41
2023-05-05T03:48:23.284Z,99498.73
2023-05-05T03:53:26.897Z,99503.08
2023-05-05T03:58:31.211Z,99506.16
2023-05-05T04:03:34.384Z,99498.75
2023-05-05T04:08:37.890Z,99494.30
2023-05-05T04:13:41.877Z,99497.14
2023-05-05T04:18:45.410Z,99494.27
2023-05-05T04:23:48.745Z,99499.65
2023-05-05T04:28:52.734Z,99502.59
2023-05-05T04:33:56.635Z,99501.03
2023-05-05T04:39:08.600Z,99502.13
2023-05-05T04:44:12.601Z,99503.22
2023-05-05T04:49:16.143Z,99509.02
2023-05-05T04:54:19.320Z,99516.21
2023-05-05T04:59:22.420Z,99515.67
2023-05-05T05:04:30.141Z,99521.59
2023-05-05T05:09:37.954Z,99517.83
2023-05-05T05:14:41.765Z,99514.31
2023-05-05T05:19:44.932Z,99514.37
2023-05-05T05:24:48.258Z,99521.91
2023-05-05T05:29:51.845Z,99526.97
2023-05-05T05:34:55.220Z,99531.14
2023-05-05T05:39:58.274Z,99534.68
2023-05-05T05:45:01.903Z,99533.58
2023-05-05T05:50:07.208Z,99537.54
2023-05-05T05:55:11.111Z,99536.30
2023-05-05T06:00:16.048Z,99532.38
2023-05-05T06:05:20.558Z,99537.20
2023-05-05T06:10:27.924Z,99538.88
2023-05-05T06:15:36.345Z,99538.85
2023-05-05T06:20:40.099Z,99539.73
2023-05-05T06:25:43.481Z,99544.52
2023-05-05T06:30:46.484Z,99544.95
2023-05-05T06:35:52.043Z,99542.39
2023-05-05T06:40:55.128Z,99544.58
2023-05-05T06:45:58.062Z,99545.88
2023-05-05T06:51:03.831Z,99542.91
2023-05-05T06:56:07.269Z,99543.20
2023-05-05T07:01:10.304Z,99541.83
2023-05-05T07:06:13.584Z,99541.01
2023-05-05T07:11:16.661Z,99548.23
2023-05-05T07:16:19.807Z,99543.48
2023-05-05T07:21:22.878Z,99534.70
2023-05-05T07:26:26.287Z,99532.50
2023-05-05T07:31:29.393Z,99528.27
2023-05-05T07:36:33.031Z,99525.31
2023-05-05T07:41:36.038Z,99527.64
2023-05-05T07:46:39.021Z,99527.98
2023-05-05T07:51:42.787Z,99525.77
2023-05-05T07:56:46.295Z,99524.94
2023-05-05T08:01:49.736Z,99519.63
2023-05-05T08:06:53.005Z,99519.00
2023-05-05T08:11:55.945Z,99515.54
2023-05-05T08:16:58.905Z,99512.50
2023-05-05T08:22:02.063Z,99511.58
2023-05-05T08:27:05.008Z,99513.46
2023-05-05T08:32:08.368Z,99517.46
2023-05-05T08:37:11.509Z,99518.21
2023-05-05T08:42:25.497Z,99515.05
2023-05-05T08:47:38.231Z,99508.58
2023-05-05T08:52:45.932Z,99508.88
2023-05-05T08:57:54.790Z,99506.18
2023-05-05T09:02:59.963Z,99505.56
2023-05-05T09:08:06.028Z,99497.38
2023-05-05T09:13:09.402Z,99499.98
2023-05-05T09:18:13.232Z,99500.92
2023-05-05T09:23:18.615Z,99499.38
2023-05-05T09:28:21.519Z,99506.57
2023-05-05T09:33:31.427Z,99502.67
2023-05-05T09:38:35.762Z,99501.65
2023-05-05T09:43:50.669Z,99500.16
2023-05-05T09:48:53.970Z,99499.36
2023-05-05T09:53:57.496Z,99494.55
2023-05-05T09:59:12.256Z,99490.14
2023-05-05T10:04:29.389Z,99488.45
2023-05-05T10:09:32.724Z,99483.89
2023-05-05T10:14:36.565Z,99484.15
2023-05-05T10:25:39.427Z,99472.17
2023-05-05T10:30:46.542Z,99472.02
2023-05-05T10:36:10.242Z,99466.75
2023-05-05T10:41:16.422Z,99464.14
2023-05-05T10:46:19.805Z,99462.08
2023-05-05T10:51:39.558Z,99458.70
2023-05-05T10:56:44.582Z,99456.06
2023-05-05T11:01:51.081Z,99450.95
2023-05-05T11:07:14.776Z,99444.48
2023-05-05T11:12:18.666Z,99439.27
2023-05-05T11:17:48.033Z,99438.85
2023-05-05T11:23:03.589Z,99434.38
2023-05-05T11:28:08.631Z,99431.59
2023-05-05T11:33:32.706Z,99428.33
2023-05-05T11:39:05.680Z,99430.75
2023-05-05T11:44:11.942Z,99429.35
2023-05-05T11:49:33.335Z,99428.11
2023-05-05T11:54:40.678Z,99427.26
2023-05-05T11:59:52.170Z,99427.90
2023-05-05T12:04:56.911Z,99420.24
2023-05-05T12:10:00.918Z,99415.80
2023-05-05T12:15:05.049Z,99412.74
2023-05-05T12:20:09.112Z,99412.33
2023-05-05T12:25:12.502Z,99408.40
2023-05-05T12:30:18.566Z,99406.20
2023-05-05T12:35:21.998Z,99394.16
2023-05-05T12:40:44.010Z,99391.77
2023-05-05T12:45:47.140Z,99387.78
2023-05-05T12:50:50.087Z,99381.98
2023-05-05T12:55:53.094Z,99386.57
2023-05-05T13:01:10.937Z,99377.81
2023-05-05T13:06:21.249Z,99373.61
2023-05-05T13:11:24.296Z,99368.67
2023-05-05T13:16:27.705Z,99363.54
2023-05-05T13:21:32.138Z,99354.37
2023-05-05T13:26:36.783Z,99352.98
2023-05-05T13:31:39.972Z,99351.15
2023-05-05T13:36:43.064Z,99341.59
2023-05-05T13:41:46.785Z,99338.69
2023-05-05T13:46:49.776Z,99335.55
2023-05-05T13:51:52.882Z,99333.19
2023-05-05T13:56:55.841Z,99329.98
2023-05-05T14:01:59.056Z,99321.60
2023-05-05T14:07:02.129Z,99314.73
2023-05-05T14:12:06.244Z,99317.63
2023-05-05T14:17:09.177Z,99308.98
2023-05-05T14:22:12.293Z,99308.81
2023-05-05T14:27:15.502Z,99309.03
2023-05-05T14:32:18.513Z,99305.16
2023-05-05T14:37:21.651Z,99305.41
2023-05-05T14:42:27.795Z,99304.49
2023-05-05T14:47:30.969Z,99301.19
2023-05-05T14:52:33.959Z,99300.68
2023-05-05T14:57:38.355Z,99297.38
2023-05-05T15:02:41.879Z,99294.34
2023-05-05T15:07:44.984Z,99298.91
2023-05-05T15:12:48.742Z,99305.95
2023-05-05T15:17:51.880Z,99309.47
2023-05-05T15:22:58.059Z,99304.72
2023-05-05T15:28:01.236Z,99306.32
2023-05-05T15:33:04.459Z,99307.41
2023-05-05T15:38:07.616Z,99304.05
2023-05-05T15:43:10.680Z,99308.34
2023-05-05T15:48:13.618Z,99310.31
2023-05-05T15:53:17.053Z,99305.64
2023-05-05T15:58:20.003Z,99304.41
2023-05-05T16:03:23.196Z,99299.62
2023-05-05T16:08:26.283Z,99296.34
2023-05-05T16:13:30.516Z,99297.62
2023-05-05T16:18:33.822Z,99293.64
2023-05-05T16:23:36.954Z,99289.51
2023-05-05T16:28:40.241Z,99288.25
2023-05-05T16:33:44.105Z,99286.19
2023-05-05T16:38:47.367Z,99290.10
2023-05-05T16:43:50.383Z,99286.09
2023-05-05T16:48:53.377Z,99283.77
2023-05-05T16:54:02.560Z,99289.17
2023-05-05T16:59:05.680Z,99288.20
2023-05-05T17:04:08.787Z,99291.11
2023-05-05T17:09:11.859Z,99291.26
2023-05-05T17:14:14.903Z,99292.09
2023-05-05T17:19:17.962Z,99294.14
2023-05-05T17:24:21.257Z,99299.70
2023-05-05T17:29:24.326Z,99305.50
2023-05-05T17:34:27.630Z,99303.34
2023-05-05T17:39:31.137Z,99309.95
2023-05-05T17:44:37.848Z,99306.48
2023-05-05T17:49:41.085Z,99310.85
2023-05-05T17:54:44.082Z,99309.07
2023-05-05T17:59:52.132Z,99313.52
2023-05-05T18:04:55.362Z,99316.02
2023-05-05T18:09:58.411Z,99317.81
2023-05-05T18:15:02.000Z,99318.30
2023-05-05T18:20:07.148Z,99319.40
2023-05-05T18:25:10.661Z,99326.60
2023-05-05T18:30:14.034Z,99331.44
2023-05-05T18:35:17.413Z,99335.86
2023-05-05T18:40:21.357Z,99339.02
2023-05-05T18:45:24.930Z,99344.69
2023-05-05T18:50:37.570Z,99344.38
2023-05-05T18:55:42.824Z,99347.43
2023-05-05T19:00:45.843Z,99348.67
2023-05-05T19:05:48.899Z,99347.80
2023-05-05T19:10:52.016Z,99347.55
2023-05-05T19:15:57.267Z,99348.30
2023-05-05T19:21:00.477Z,99345.66
2023-05-05T19:26:04.032Z,99340.95
2023-05-05T19:31:07.470Z,99334.54
2023-05-05T19:36:11.104Z,99333.08
2023-05-05T19:41:14.303Z,99329.79
2023-05-05T19:46:17.523Z,99329.21
2023-05-05T19:51:28.198Z,99337.08
2023-05-05T19:56:31.701Z,99338.82
2023-05-05T20:01:35.170Z,99340.49
2023-05-05T20:06:38.326Z,99338.63
2023-05-05T20:11:41.648Z,99342.21
2023-05-05T20:16:44.892Z,99335.87
2023-05-05T20:21:48.036Z,99333.19
2023-05-05T20:26:51.382Z,99335.65
2023-05-05T20:31:54.616Z,99334.36
2023-05-05T20:36:58.191Z,99331.05
2023-05-05T20:42:01.425Z,99324.81
2023-05-05T20:47:04.865Z,99322.96
2023-05-05T20:52:07.984Z,99319.56
2023-05-05T20:57:11.626Z,99319.34
2023-05-05T21:02:14.668Z,99316.10
2023-05-05T21:07:17.744Z,99323.52
2023-05-05T21:12:20.797Z,99331.55
2023-05-05T21:17:24.590Z,99334.90
2023-05-05T21:22:27.839Z,99330.85
2023-05-05T21:27:31.243Z,99330.52
2023-05-05T21:32:34.393Z,99335.04
2023-05-05T21:37:39.175Z,99332.16
2023-05-05T21:42:42.769Z,99328.36
2023-05-05T21:47:45.864Z,99321.46
2023-05-05T21:52:48.861Z,99321.08
2023-05-05T21:57:51.911Z,99318.46
2023-05-05T22:02:54.970Z,99316.14
2023-05-05T22:07:58.230Z,99314.95
2023-05-05T22:13:01.371Z,99313.21
2023-05-05T22:18:04.780Z,99316.44
2023-05-05T22:23:07.879Z,99316.27
2023-05-05T22:28:11.671Z,99310.92
2023-05-05T22:33:15.572Z,99315.62
2023-05-05T22:38:18.676Z,99318.73
2023-05-05T22:43:21.579Z,99317.98
2023-05-05T22:48:24.663Z,99316.05
2023-05-05T22:53:27.701Z,99317.34
2023-05-05T22:58:31.176Z,99315.14
2023-05-05T23:03:34.319Z,99321.52
2023-05-05T23:08:37.430Z,99321.64
2023-05-05T23:13:40.887Z,99321.80
2023-05-05T23:18:44.171Z,99316.16
2023-05-05T23:23:47.283Z,99310.77
2023-05-05T23:28:50.254Z,99303.73
2023-05-05T23:33:53.393Z,99296.55
2023-05-05T23:38:56.350Z,99286.54
2023-05-05T23:43:59.319Z,99280.26
2023-05-05T23:49:02.583Z,99277.33
2023-05-05T23:54:05.665Z,99278.42
2023-05-05T23:59:08.796Z,99277.84
